Time;durP1;ratioP1;P1;durP2;ratioP2;P2;SDS_P1;SDS_P2;PMS_P1;PMS_P2;Temp;Humidity;BMP_temperature;BMP_pressure;BME280_temperature;BME280_humidity;BME280_pressure;Samples;Min_cycle;Max_cycle;Signal;HPM_P1;HPM_P2
2021/11/10 00:01:20;;;;;;;;;;;;;;;22.08;29.96;99658.72;4985909;28;1952;-77
2021/11/10 00:03:45;;;;;;;;;;;;;;;21.97;30.14;99663.59;4983137;28;1106;-77
2021/11/10 00:06:10;;;;;;;;;;;;;;;22.37;29.34;99670.78;4987087;28;1138;-77
2021/11/10 00:08:36;;;;;;;;;;;;;;;22.24;29.41;99673.28;4934513;28;997;-76
2021/11/10 00:11:01;;;;;;;;;;;;;;;22.30;29.33;99668.81;4987342;28;919;-77
2021/11/10 00:13:27;;;;;;;;;;;;;;;22.57;29.56;99671.94;4981590;28;1153;-77
2021/11/10 00:15:52;;;;;;;;;;;;;;;22.57;29.62;99680.44;4985212;28;1032;-76
2021/11/10 00:18:18;;;;;;;;;;;;;;;22.65;29.00;99678.41;4982247;28;948;-76
2021/11/10 00:20:44;;;;;;;;;;;;;;;22.45;29.48;99682.94;5017912;28;1949;-77
2021/11/10 00:23:09;;;;;;;;;;;;;;;22.42;29.11;99680.91;5023852;28;932;-76
2021/11/10 00:25:35;;;;;;;;;;;;;;;22.20;29.42;99688.69;5026470;28;923;-77
2021/11/10 00:28:00;;;;;;;;;;;;;;;22.47;29.22;99680.50;5025096;28;950;-77
2021/11/10 00:30:26;;;;;;;;;;;;;;;22.60;29.47;99681.66;5026204;28;1146;-77
2021/11/10 00:32:52;;;;;;;;;;;;;;;22.70;29.04;99686.50;4964933;29;966;-77
2021/11/10 00:35:17;;;;;;;;;;;;;;;22.49;29.29;99695.91;4964643;29;941;-76
2021/11/10 00:37:43;;;;;;;;;;;;;;;22.22;29.90;99691.91;4981937;28;1085;-77
2021/11/10 00:40:08;;;;;;;;;;;;;;;22.44;29.49;99699.16;4964364;29;970;-77
2021/11/10 00:42:33;;;;;;;;;;;;;;;22.33;29.41;99696.34;4965471;29;1887;-77
2021/11/10 00:44:59;;;;;;;;;;;;;;;22.53;29.57;99701.53;4924488;29;1124;-77
2021/11/10 00:47:26;;;;;;;;;;;;;;;22.69;29.11;99699.06;4927176;29;1115;-77
2021/11/10 00:49:51;;;;;;;;;;;;;;;22.68;29.27;99702.28;4924293;29;1055;-78
2021/11/10 00:52:16;;;;;;;;;;;;;;;22.46;29.33;99701.56;4927038;29;1248;-77
2021/11/10 00:54:42;;;;;;;;;;;;;;;22.35;29.46;99699.56;4924951;29;1002;-77
2021/11/10 00:57:07;;;;;;;;;;;;;;;22.34;29.33;99706.47;4927679;29;1056;-77
2021/11/10 00:59:33;;;;;;;;;;;;;;;22.14;29.60;99721.50;4926113;29;1193;-77
2021/11/10 01:01:58;;;;;;;;;;;;;;;22.28;29.42;99736.47;4927568;29;1888;-77
2021/11/10 01:04:24;;;;;;;;;;;;;;;22.23;29.51;99736.06;4939425;29;1093;-77
2021/11/10 01:06:49;;;;;;;;;;;;;;;22.32;29.49;99737.25;4908630;29;1206;-76
2021/11/10 01:09:17;;;;;;;;;;;;;;;22.31;29.78;99735.63;4905664;29;1193;-77
2021/11/10 01:11:45;;;;;;;;;;;;;;;22.57;29.64;99754.22;4908615;29;1137;-77
2021/11/10 01:14:12;;;;;;;;;;;;;;;22.63;29.49;99758.25;4887299;29;1106;-77
2021/11/10 01:16:38;;;;;;;;;;;;;;;22.54;29.13;99757.09;4903528;29;1403;-77
2021/11/10 01:19:05;;;;;;;;;;;;;;;22.27;30.05;99768.84;4890650;29;1164;-77
2021/11/10 01:21:32;;;;;;;;;;;;;;;22.30;29.43;99762.38;4892655;29;1907;-77
2021/11/10 01:23:57;;;;;;;;;;;;;;;22.28;29.63;99769.69;4921240;29;909;-77
2021/11/10 01:26:23;;;;;;;;;;;;;;;22.19;29.80;99769.28;4927681;29;1166;-77
2021/11/10 01:28:48;;;;;;;;;;;;;;;22.37;29.57;99772.91;4906122;29;1042;-77
2021/11/10 01:31:14;;;;;;;;;;;;;;;22.29;29.68;99782.66;4889999;29;1308;-77
2021/11/10 01:33:39;;;;;;;;;;;;;;;22.21;30.15;99798.84;4831116;29;1090;-77
2021/11/10 01:36:07;;;;;;;;;;;;;;;22.39;29.42;99798.84;4835533;29;1255;-77
2021/11/10 01:38:33;;;;;;;;;;;;;;;22.45;29.90;99790.72;4795481;29;1135;-77
2021/11/10 01:40:58;;;;;;;;;;;;;;;22.61;29.55;99794.75;4813731;29;1947;-77
2021/11/10 01:43:27;;;;;;;;;;;;;;;22.40;29.42;99788.31;4809610;29;1315;-78
2021/11/10 01:45:54;;;;;;;;;;;;;;;22.20;29.88;99794.41;4820374;29;1242;-76
2021/11/10 01:48:22;;;;;;;;;;;;;;;22.49;29.19;99800.84;4809218;29;1085;-77
2021/11/10 01:50:48;;;;;;;;;;;;;;;22.28;29.38;99798.84;4780776;30;1260;-77
2021/11/10 01:53:13;;;;;;;;;;;;;;;22.27;29.63;99800.06;4763507;30;1331;-77
2021/11/10 01:55:39;;;;;;;;;;;;;;;22.27;29.61;99802.88;4780512;30;1128;-77
2021/11/10 01:58:04;;;;;;;;;;;;;;;22.23;29.79;99806.97;4779090;30;1199;-77
2021/11/10 02:00:34;;;;;;;;;;;;;;;22.25;29.91;99816.66;4780789;30;1955;-77
2021/11/10 02:03:07;;;;;;;;;;;;;;;22.47;30.03;99822.31;4713434;30;1166;-77
2021/11/10 02:05:58;;;;;;;;;;;;;;;22.63;29.80;99828.38;4754952;30;1163;-77
2021/11/10 02:08:49;;;;;;;;;;;;;;;22.33;29.54;99840.19;4784819;30;1002;-77
2021/11/10 02:11:20;;;;;;;;;;;;;;;22.33;29.40;99846.66;4802013;29;1162;-77
2021/11/10 02:13:56;;;;;;;;;;;;;;;22.19;29.52;99843.81;4813932;29;1148;-77
2021/11/10 02:16:22;;;;;;;;;;;;;;;22.32;29.73;99844.22;4801473;29;1162;-77
2021/11/10 02:18:47;;;;;;;;;;;;;;;22.23;29.85;99847.47;4825356;29;1130;-77
2021/11/10 02:21:17;;;;;;;;;;;;;;;22.08;30.23;99845.81;4854329;29;1915;-77
2021/11/10 02:23:43;;;;;;;;;;;;;;;22.38;29.59;99842.56;4854363;29;1615;-77
2021/11/10 02:26:22;;;;;;;;;;;;;;;22.41;29.72;99852.31;4868358;29;1019;-77
2021/11/10 02:28:48;;;;;;;;;;;;;;;22.24;30.09;99860.44;4872079;29;1546;-77
2021/11/10 02:31:14;;;;;;;;;;;;;;;22.35;29.78;99866.09;4838141;29;905;-77
2021/11/10 02:33:39;;;;;;;;;;;;;;;22.38;29.66;99872.97;4816697;29;1041;-77
2021/11/10 02:36:05;;;;;;;;;;;;;;;22.23;30.13;99884.34;4820050;29;981;-77
2021/11/10 02:38:31;;;;;;;;;;;;;;;22.22;30.09;99888.34;4816343;29;1243;-76
2021/11/10 02:40:58;;;;;;;;;;;;;;;22.56;29.87;99873.78;4820324;29;1884;-77
2021/11/10 02:43:23;;;;;;;;;;;;;;;22.57;29.99;99872.56;4766507;30;1129;-77
2021/11/10 02:45:49;;;;;;;;;;;;;;;22.62;29.67;99869.31;4814822;29;993;-78
2021/11/10 02:48:15;;;;;;;;;;;;;;;22.46;29.74;99866.09;4853815;29;1074;-77
2021/11/10 02:50:40;;;;;;;;;;;;;;;22.39;29.35;99888.78;4855947;29;958;-77
2021/11/10 02:53:06;;;;;;;;;;;;;;;22.27;29.42;99882.28;4854223;29;1040;-78
2021/11/10 02:55:31;;;;;;;;;;;;;;;22.60;29.94;99888.78;4855473;29;1032;-77
2021/11/10 02:57:57;;;;;;;;;;;;;;;22.75;29.38;99875.38;4872682;29;973;-76
2021/11/10 03:00:22;;;;;;;;;;;;;;;22.71;29.03;99866.88;4841139;29;1390;-77
2021/11/10 03:02:50;;;;;;;;;;;;;;;22.40;29.62;99870.56;4832704;29;1951;-77
2021/11/10 03:05:15;;;;;;;;;;;;;;;22.28;29.21;99880.28;4832156;29;1491;-77
2021/11/10 03:07:41;;;;;;;;;;;;;;;22.02;29.67;99887.94;4870269;29;1130;-76
2021/11/10 03:10:07;;;;;;;;;;;;;;;22.33;29.89;99882.72;4856671;29;1126;-77
2021/11/10 03:12:33;;;;;;;;;;;;;;;22.43;29.41;99883.91;4881654;29;1317;-78
2021/11/10 03:14:59;;;;;;;;;;;;;;;22.05;30.30;99886.28;4879977;29;1180;-78
2021/11/10 03:17:25;;;;;;;;;;;;;;;21.99;30.67;99882.25;4911673;29;1431;-77
2021/11/10 03:19:52;;;;;;;;;;;;;;;22.20;29.91;99882.28;4928391;29;1308;-77
2021/11/10 03:22:20;;;;;;;;;;;;;;;22.33;29.86;99885.56;4911134;29;1972;-77
2021/11/10 03:24:49;;;;;;;;;;;;;;;22.30;29.72;99881.50;4894013;29;1104;-77
2021/11/10 03:27:19;;;;;;;;;;;;;;;22.32;29.76;99881.88;4875999;29;1150;-77
2021/11/10 03:29:50;;;;;;;;;;;;;;;22.55;29.70;99883.53;4874310;29;1016;-76
2021/11/10 03:32:17;;;;;;;;;;;;;;;22.66;29.31;99875.81;4891599;29;1259;-77
2021/11/10 03:34:43;;;;;;;;;;;;;;;22.48;29.07;99880.66;4889634;29;1076;-77
2021/11/10 03:37:08;;;;;;;;;;;;;;;22.36;28.95;99874.19;4891359;29;1527;-77
2021/11/10 03:39:36;;;;;;;;;;;;;;;22.35;28.85;99868.94;4905328;29;2061;-76
2021/11/10 03:42:02;;;;;;;;;;;;;;;22.29;29.34;99874.19;4891787;29;1971;-77
2021/11/10 03:44:27;;;;;;;;;;;;;;;22.28;29.41;99877.44;4891342;29;1193;-77
2021/11/10 03:46:57;;;;;;;;;;;;;;;22.15;29.66;99884.72;4859718;29;1137;-77
2021/11/10 03:49:25;;;;;;;;;;;;;;;21.97;30.02;99881.84;4855089;29;1201;-77
2021/11/10 03:51:52;;;;;;;;;;;;;;;22.54;29.49;99879.06;4855061;29;1236;-77
2021/11/10 03:54:17;;;;;;;;;;;;;;;22.63;29.29;99873.75;4853851;29;1374;-77
2021/11/10 03:56:44;;;;;;;;;;;;;;;22.48;29.19;99863.66;4854340;29;1481;-77
2021/11/10 03:59:10;;;;;;;;;;;;;;;22.40;29.18;99859.22;4852623;29;1142;-77
2021/11/10 04:01:36;;;;;;;;;;;;;;;22.36;28.92;99868.53;4854757;29;1915;-77
2021/11/10 04:04:03;;;;;;;;;;;;;;;22.57;28.90;99875.41;4852713;29;1276;-78
2021/11/10 04:06:29;;;;;;;;;;;;;;;22.24;29.47;99883.13;4885164;29;1257;-77
2021/11/10 04:08:55;;;;;;;;;;;;;;;22.43;29.27;99879.03;4866504;29;1232;-77
2021/11/10 04:11:22;;;;;;;;;;;;;;;22.30;29.63;99875.00;4927788;29;1403;-78
2021/11/10 04:13:48;;;;;;;;;;;;;;;22.55;29.39;99877.84;4927800;29;1265;-77
2021/11/10 04:16:19;;;;;;;;;;;;;;;22.33;29.78;99880.69;4957050;28;937;-77
2021/11/10 04:18:45;;;;;;;;;;;;;;;22.21;29.95;99872.56;4965453;29;1545;-78
2021/11/10 04:21:18;;;;;;;;;;;;;;;22.33;29.63;99863.69;4952244;29;1895;-77
2021/11/10 04:23:44;;;;;;;;;;;;;;;22.31;29.79;99860.41;4965413;28;1335;-77
2021/11/10 04:26:12;;;;;;;;;;;;;;;22.31;29.66;99871.75;4966068;29;1338;-77
2021/11/10 04:28:38;;;;;;;;;;;;;;;22.38;29.52;99882.28;4964280;29;1004;-77
2021/11/10 04:31:04;;;;;;;;;;;;;;;22.57;29.28;99883.91;4969003;28;1214;-78
2021/11/10 04:33:36;;;;;;;;;;;;;;;22.22;29.78;99879.84;4964501;29;1183;-77
2021/11/10 04:36:03;;;;;;;;;;;;;;;22.25;29.74;99879.06;4969934;29;1195;-77
2021/11/10 04:38:28;;;;;;;;;;;;;;;22.43;29.65;99855.53;4965467;28;1123;-77
2021/11/10 04:40:54;;;;;;;;;;;;;;;22.31;29.66;99849.06;4968899;29;1914;-76
2021/11/10 04:43:20;;;;;;;;;;;;;;;22.49;29.86;99868.13;4965265;29;1248;-78
2021/11/10 04:46:00;;;;;;;;;;;;;;;22.61;29.50;99873.38;4968647;29;1156;-77
2021/11/10 04:48:28;;;;;;;;;;;;;;;22.76;29.44;99874.97;4964349;29;1310;-78
2021/11/10 04:50:53;;;;;;;;;;;;;;;22.38;29.40;99870.94;4983683;28;871;-77
2021/11/10 04:53:19;;;;;;;;;;;;;;;22.55;29.19;99880.69;4965219;29;1012;-78
2021/11/10 04:55:44;;;;;;;;;;;;;;;22.29;29.33;99885.53;4967811;29;866;-77
2021/11/10 04:58:10;;;;;;;;;;;;;;;22.40;30.12;99881.91;4965450;29;1231;-77
2021/11/10 05:00:37;;;;;;;;;;;;;;;22.60;29.70;99880.28;4967627;29;1965;-77
2021/11/10 05:03:03;;;;;;;;;;;;;;;22.73;29.53;99870.09;4930723;29;1122;-78
2021/11/10 05:05:29;;;;;;;;;;;;;;;22.46;29.46;99866.09;4966353;29;1082;-77
2021/11/10 05:07:54;;;;;;;;;;;;;;;22.24;29.75;99879.47;4946883;29;1000;-78
2021/11/10 05:10:21;;;;;;;;;;;;;;;22.34;29.30;99887.16;4947786;29;1062;-77
2021/11/10 05:12:53;;;;;;;;;;;;;;;22.44;29.62;99913.91;4947625;29;1124;-78
2021/11/10 05:15:19;;;;;;;;;;;;;;;22.48;29.55;99904.16;4927329;29;1464;-77
2021/11/10 05:17:44;;;;;;;;;;;;;;;22.22;29.89;99901.72;4952844;29;1241;-81
2021/11/10 05:20:13;;;;;;;;;;;;;;;22.24;29.82;99894.44;4955960;29;1141;-81
2021/11/10 05:22:43;;;;;;;;;;;;;;;22.33;29.93;99886.38;4917992;29;1892;-82
2021/11/10 05:25:09;;;;;;;;;;;;;;;22.31;30.09;99905.78;4909687;29;1054;-79
2021/11/10 05:27:35;;;;;;;;;;;;;;;22.33;29.77;99917.56;4892928;29;969;-80
2021/11/10 05:30:00;;;;;;;;;;;;;;;22.29;30.07;99919.56;4890956;29;868;-80
2021/11/10 05:32:26;;;;;;;;;;;;;;;22.34;30.09;99922.00;4911974;29;953;-80
2021/11/10 05:34:51;;;;;;;;;;;;;;;22.54;29.90;99924.47;4909557;29;870;-80
2021/11/10 05:37:17;;;;;;;;;;;;;;;22.53;29.99;99929.28;4912511;29;1046;-79
2021/11/10 05:39:43;;;;;;;;;;;;;;;22.65;30.10;99925.25;4924972;29;815;-79
2021/11/10 05:42:08;;;;;;;;;;;;;;;22.25;29.85;99935.78;4930547;29;1946;-79
2021/11/10 05:44:34;;;;;;;;;;;;;;;22.11;30.26;99941.41;4927798;29;913;-79
2021/11/10 05:46:59;;;;;;;;;;;;;;;22.20;29.56;99939.00;4896686;29;1193;-79
2021/11/10 05:49:25;;;;;;;;;;;;;;;22.24;30.78;99939.81;4890846;29;894;-79
2021/11/10 05:51:50;;;;;;;;;;;;;;;22.59;29.79;99938.25;4892172;29;819;-79
2021/11/10 05:54:16;;;;;;;;;;;;;;;22.59;29.67;99950.41;4904324;29;967;-79
2021/11/10 05:56:43;;;;;;;;;;;;;;;22.09;30.04;99944.63;4911642;29;1120;-79
2021/11/10 05:59:09;;;;;;;;;;;;;;;22.36;29.20;99962.13;4899796;29;891;-80
2021/11/10 06:01:34;;;;;;;;;;;;;;;22.43;28.97;99960.50;4911890;29;1954;-80
2021/11/10 06:04:00;;;;;;;;;;;;;;;22.29;29.79;99964.94;4909867;29;1150;-79
2021/11/10 06:06:26;;;;;;;;;;;;;;;22.38;29.79;99955.22;4911514;29;1089;-80
2021/11/10 06:08:51;;;;;;;;;;;;;;;22.46;29.76;99952.00;4912250;29;797;-79
2021/11/10 06:11:17;;;;;;;;;;;;;;;22.39;29.66;99962.53;4949682;29;1017;-79
2021/11/10 06:13:42;;;;;;;;;;;;;;;22.05;30.15;99971.34;4945870;29;1017;-79
2021/11/10 06:16:08;;;;;;;;;;;;;;;22.34;30.20;99977.94;4949380;29;760;-79
2021/11/10 06:18:34;;;;;;;;;;;;;;;22.31;30.08;99978.72;4954510;29;947;-79
2021/11/10 06:20:59;;;;;;;;;;;;;;;22.23;29.88;99972.25;4969152;29;1891;-79
2021/11/10 06:23:25;;;;;;;;;;;;;;;22.24;29.75;99976.69;4965317;29;986;-79
2021/11/10 06:25:50;;;;;;;;;;;;;;;22.07;30.11;99985.91;4930485;29;1141;-79
2021/11/10 06:28:16;;;;;;;;;;;;;;;22.49;29.99;99990.09;4905868;29;1121;-80
2021/11/10 06:30:41;;;;;;;;;;;;;;;22.51;29.81;99990.50;4906694;29;931;-79
2021/11/10 06:33:06;;;;;;;;;;;;;;;22.35;29.64;99986.03;4908391;29;895;-79
2021/11/10 06:35:32;;;;;;;;;;;;;;;22.15;29.64;99990.44;4890334;29;1073;-79
2021/11/10 06:37:57;;;;;;;;;;;;;;;22.26;29.48;99991.25;4889428;29;994;-79
2021/11/10 06:40:23;;;;;;;;;;;;;;;22.30;30.33;99994.94;4890951;29;869;-79
2021/11/10 06:42:48;;;;;;;;;;;;;;;22.58;30.11;99993.34;4890523;29;1896;-79
2021/11/10 06:45:13;;;;;;;;;;;;;;;22.64;29.73;99997.41;4890466;29;933;-79
2021/11/10 06:47:39;;;;;;;;;;;;;;;22.37;29.60;99994.13;4892488;29;845;-79
2021/11/10 06:50:05;;;;;;;;;;;;;;;22.29;29.29;99990.47;4907210;29;888;-79
2021/11/10 06:52:30;;;;;;;;;;;;;;;22.24;29.36;99996.53;4914156;29;800;-79
2021/11/10 06:54:55;;;;;;;;;;;;;;;22.39;29.71;100002.25;4911594;29;994;-79
2021/11/10 06:57:21;;;;;;;;;;;;;;;22.55;29.85;100006.31;4913762;29;1377;-79
2021/11/10 06:59:47;;;;;;;;;;;;;;;22.74;29.50;100005.13;4911065;29;847;-79
2021/11/10 07:02:12;;;;;;;;;;;;;;;22.47;29.65;100001.84;4894507;29;1956;-79
2021/11/10 07:04:37;;;;;;;;;;;;;;;22.47;29.36;99993.31;4877497;29;887;-79
2021/11/10 07:07:03;;;;;;;;;;;;;;;22.28;29.35;100002.22;4884474;29;1085;-79
2021/11/10 07:09:29;;;;;;;;;;;;;;;22.00;30.19;100005.75;4893099;29;1027;-79
2021/11/10 07:11:54;;;;;;;;;;;;;;;22.41;29.65;100011.16;4895286;29;947;-79
2021/11/10 07:14:20;;;;;;;;;;;;;;;22.25;29.49;100009.50;4892817;29;833;-79
2021/11/10 07:16:45;;;;;;;;;;;;;;;22.35;29.30;100008.72;4864255;29;905;-79
2021/11/10 07:19:11;;;;;;;;;;;;;;;22.27;30.05;100001.38;4892783;29;801;-79
2021/11/10 07:21:36;;;;;;;;;;;;;;;22.48;29.76;99991.31;4894418;29;1888;-79
2021/11/10 07:24:01;;;;;;;;;;;;;;;22.55;29.16;100003.47;4892239;29;1014;-78
2021/11/10 07:26:27;;;;;;;;;;;;;;;22.55;28.82;100016.84;4894751;29;948;-79
2021/11/10 07:28:53;;;;;;;;;;;;;;;22.16;29.25;100011.91;4919911;29;833;-79
2021/11/10 07:31:18;;;;;;;;;;;;;;;21.98;29.20;100011.81;4931815;29;938;-80
2021/11/10 07:33:44;;;;;;;;;;;;;;;22.38;29.62;100006.28;4929803;29;864;-79
2021/11/10 07:36:09;;;;;;;;;;;;;;;22.50;28.98;100003.06;4933486;29;828;-80
2021/11/10 07:38:39;;;;;;;;;;;;;;;22.41;28.90;99994.13;4962672;28;857;-79
2021/11/10 07:41:05;;;;;;;;;;;;;;;22.40;28.70;100009.53;5033119;28;1898;-79
2021/11/10 07:43:31;;;;;;;;;;;;;;;22.23;28.72;100006.25;5028828;28;886;-79
2021/11/10 07:46:00;;;;;;;;;;;;;;;21.94;29.08;100001.69;5029660;28;1250;-79
2021/11/10 07:48:26;;;;;;;;;;;;;;;22.29;29.26;100004.66;5028885;28;872;-81
2021/11/10 07:50:51;;;;;;;;;;;;;;;22.49;29.01;100012.81;5032699;28;943;-80
2021/11/10 07:53:17;;;;;;;;;;;;;;;22.36;29.09;100024.50;5029072;28;914;-81
2021/11/10 07:55:42;;;;;;;;;;;;;;;22.28;29.53;100025.72;4993434;28;1012;-80
2021/11/10 07:58:08;;;;;;;;;;;;;;;22.20;29.49;100015.56;4952304;29;911;-81
2021/11/10 08:00:34;;;;;;;;;;;;;;;22.36;29.51;100009.53;4954629;29;803;-80
2021/11/10 08:02:59;;;;;;;;;;;;;;;22.24;29.67;100012.75;4991840;28;1887;-81
2021/11/10 08:05:25;;;;;;;;;;;;;;;22.28;29.75;100020.06;4992334;28;1058;-80
2021/11/10 08:07:50;;;;;;;;;;;;;;;22.47;29.41;100012.38;4973252;29;946;-80
2021/11/10 08:10:16;;;;;;;;;;;;;;;22.75;29.11;100009.59;4952502;29;1105;-80
2021/11/10 08:12:46;;;;;;;;;;;;;;;22.85;28.80;100019.31;4953624;29;918;-81
2021/11/10 08:15:12;;;;;;;;;;;;;;;22.67;29.04;100013.63;4952516;29;918;-80
2021/11/10 08:17:38;;;;;;;;;;;;;;;22.35;29.40;100014.38;4938047;29;1030;-81
2021/11/10 08:20:07;;;;;;;;;;;;;;;22.18;29.37;100008.69;4933100;29;923;-81
2021/11/10 08:22:33;;;;;;;;;;;;;;;22.28;29.30;100013.56;4896982;29;1884;-81
2021/11/10 08:24:58;;;;;;;;;;;;;;;22.39;29.35;100007.91;4895875;29;903;-81
2021/11/10 08:27:24;;;;;;;;;;;;;;;22.39;29.36;100007.91;4882755;29;952;-81
2021/11/10 08:29:50;;;;;;;;;;;;;;;22.52;28.96;100007.13;4876993;29;945;-81
2021/11/10 08:32:16;;;;;;;;;;;;;;;22.31;29.26;99995.72;4879313;29;938;-81
2021/11/10 08:34:41;;;;;;;;;;;;;;;22.43;29.28;99991.69;4859211;29;999;-81
2021/11/10 08:37:06;;;;;;;;;;;;;;;22.06;29.57;100001.31;4860732;29;906;-81
2021/11/10 08:39:32;;;;;;;;;;;;;;;22.09;29.67;99998.50;4859201;29;971;-81
2021/11/10 08:41:59;;;;;;;;;;;;;;;22.47;29.36;99986.84;4878453;29;1887;-81
2021/11/10 08:44:26;;;;;;;;;;;;;;;22.68;28.84;99986.84;4877033;29;947;-81
2021/11/10 08:46:52;;;;;;;;;;;;;;;22.27;29.17;99990.03;4884519;29;912;-81
2021/11/10 08:49:17;;;;;;;;;;;;;;;21.91;29.67;99999.63;4911803;29;944;-81
2021/11/10 08:51:43;;;;;;;;;;;;;;;22.03;29.55;99996.44;4896769;29;891;-81
2021/11/10 08:54:08;;;;;;;;;;;;;;;22.16;29.52;100006.22;4909312;29;887;-81
2021/11/10 08:56:33;;;;;;;;;;;;;;;22.07;29.28;99997.25;4930233;29;867;-81
2021/11/10 08:58:59;;;;;;;;;;;;;;;22.00;29.63;99991.56;4895404;29;976;-80
2021/11/10 09:01:25;;;;;;;;;;;;;;;22.51;29.30;99993.34;4899031;29;1884;-80
2021/11/10 09:03:50;;;;;;;;;;;;;;;22.63;28.82;99998.59;4913466;29;923;-80
2021/11/10 09:06:16;;;;;;;;;;;;;;;22.44;29.24;99987.66;4928705;29;1029;-81
2021/11/10 09:08:41;;;;;;;;;;;;;;;22.20;29.38;99992.06;4950909;29;905;-80
2021/11/10 09:11:06;;;;;;;;;;;;;;;22.05;29.38;99982.69;4952948;29;1205;-81
2021/11/10 09:13:32;;;;;;;;;;;;;;;22.32;28.85;99974.66;4917480;29;996;-80
2021/11/10 09:15:57;;;;;;;;;;;;;;;22.56;28.80;99973.88;4915438;29;926;-80
2021/11/10 09:18:23;;;;;;;;;;;;;;;22.59;29.09;99977.97;4912835;29;944;-81
2021/11/10 09:20:48;;;;;;;;;;;;;;;22.48;28.69;99977.13;4914890;29;1875;-80
2021/11/10 09:23:14;;;;;;;;;;;;;;;22.33;28.78;99970.63;4912898;29;1303;-81
2021/11/10 09:25:40;;;;;;;;;;;;;;;22.41;28.75;99965.78;4899424;29;999;-80
2021/11/10 09:28:07;;;;;;;;;;;;;;;22.44;28.89;99959.31;4897696;29;876;-81
2021/11/10 09:30:33;;;;;;;;;;;;;;;22.66;28.63;99966.59;4891090;29;906;-80
2021/11/10 09:32:58;;;;;;;;;;;;;;;22.74;28.39;99956.03;4895607;29;891;-81
2021/11/10 09:35:24;;;;;;;;;;;;;;;22.27;28.67;99955.22;4895794;29;913;-81
2021/11/10 09:37:52;;;;;;;;;;;;;;;22.15;29.24;99953.56;4895510;29;1019;-81
2021/11/10 09:40:18;;;;;;;;;;;;;;;22.34;28.85;99950.38;4895992;29;848;-81
2021/11/10 09:42:43;;;;;;;;;;;;;;;22.43;28.74;99957.66;4910108;29;1974;-81
2021/11/10 09:45:09;;;;;;;;;;;;;;;22.13;28.92;99956.00;4895255;29;938;-81
2021/11/10 09:47:37;;;;;;;;;;;;;;;22.29;28.68;99947.13;4877374;29;1203;-80
2021/11/10 09:50:03;;;;;;;;;;;;;;;22.51;28.53;99947.94;4856870;29;875;-81
2021/11/10 09:52:28;;;;;;;;;;;;;;;22.80;28.15;99948.78;4888968;29;895;-80
2021/11/10 09:54:54;;;;;;;;;;;;;;;22.81;28.36;99939.84;4876043;29;900;-81
2021/11/10 09:57:19;;;;;;;;;;;;;;;22.34;28.58;99941.88;4877459;29;864;-81
2021/11/10 09:59:45;;;;;;;;;;;;;;;22.32;28.53;99935.75;4876469;29;892;-81
2021/11/10 10:02:13;;;;;;;;;;;;;;;22.38;28.78;99932.53;4907290;29;1895;-81
2021/11/10 10:04:41;;;;;;;;;;;;;;;22.54;29.11;99932.97;4913452;29;973;-81
2021/11/10 10:07:07;;;;;;;;;;;;;;;22.58;28.65;99930.91;4914832;29;1097;-81
2021/11/10 10:09:33;;;;;;;;;;;;;;;22.38;28.62;99922.00;4913219;29;828;-81
2021/11/10 10:11:58;;;;;;;;;;;;;;;22.24;28.71;99925.66;4933611;29;1190;-81
2021/11/10 10:14:24;;;;;;;;;;;;;;;22.29;28.56;99930.91;4931955;29;1371;-81
2021/11/10 10:16:49;;;;;;;;;;;;;;;22.31;28.80;99934.16;4932054;29;927;-79
2021/11/10 10:19:15;;;;;;;;;;;;;;;22.43;28.74;99923.63;4977685;28;934;-80
2021/11/10 10:21:41;;;;;;;;;;;;;;;22.27;28.63;99916.31;4990234;28;1883;-80
2021/11/10 10:24:11;;;;;;;;;;;;;;;22.36;28.62;99913.09;4971899;29;916;-80
2021/11/10 10:26:36;;;;;;;;;;;;;;;22.26;28.64;99920.38;4942292;29;1148;-80
2021/11/10 10:29:07;;;;;;;;;;;;;;;22.16;29.03;99920.34;4948480;29;1429;-80
2021/11/10 10:31:32;;;;;;;;;;;;;;;22.15;29.21;99911.03;4915361;29;884;-79
2021/11/10 10:34:00;;;;;;;;;;;;;;;22.50;28.74;99912.28;4914122;29;798;-80
2021/11/10 10:36:26;;;;;;;;;;;;;;;22.69;28.45;99908.22;4954865;29;950;-81
2021/11/10 10:39:03;;;;;;;;;;;;;;;22.55;28.35;99914.72;4918752;29;1122;-80
2021/11/10 10:41:29;;;;;;;;;;;;;;;22.02;29.24;99915.44;4921082;29;1958;-81
2021/11/10 10:43:55;;;;;;;;;;;;;;;22.00;29.31;99912.19;4871850;29;959;-81
2021/11/10 10:46:27;;;;;;;;;;;;;;;22.15;29.14;99905.38;4899793;29;1046;-81
2021/11/10 10:48:53;;;;;;;;;;;;;;;22.05;29.39;99903.31;4882791;29;951;-81
2021/11/10 10:51:18;;;;;;;;;;;;;;;22.36;29.09;99913.09;4918774;29;946;-81
2021/11/10 10:53:45;;;;;;;;;;;;;;;22.59;28.82;99907.03;4901628;29;919;-78
2021/11/10 10:56:16;;;;;;;;;;;;;;;22.70;28.34;99902.16;4908798;29;963;-81
2021/11/10 10:58:41;;;;;;;;;;;;;;;22.42;28.46;99896.47;4919788;29;954;-81
2021/11/10 11:01:22;;;;;;;;;;;;;;;22.29;28.48;99902.56;4921667;29;1946;-81
2021/11/10 11:03:48;;;;;;;;;;;;;;;22.10;29.26;99888.72;4927833;29;986;-80
2021/11/10 11:06:22;;;;;;;;;;;;;;;22.26;28.80;99892.00;4939688;29;1355;-79
2021/11/10 11:08:47;;;;;;;;;;;;;;;22.23;28.96;99892.84;4911621;29;1093;-81
2021/11/10 11:11:18;;;;;;;;;;;;;;;22.12;28.78;99891.19;4940597;29;975;-80
2021/11/10 11:13:44;;;;;;;;;;;;;;;22.04;29.28;99890.34;4939748;29;887;-80
2021/11/10 11:16:10;;;;;;;;;;;;;;;22.08;29.10;99896.84;4949570;29;1093;-81
2021/11/10 11:18:36;;;;;;;;;;;;;;;22.24;28.81;99894.44;4957678;29;855;-80
2021/11/10 11:21:20;;;;;;;;;;;;;;;22.25;28.88;99896.06;4959825;29;1887;-80
2021/11/10 11:23:46;;;;;;;;;;;;;;;22.41;28.94;99898.50;4939037;29;1093;-81
2021/11/10 11:26:30;;;;;;;;;;;;;;;22.68;28.57;99886.72;4940618;29;963;-80
2021/11/10 11:28:56;;;;;;;;;;;;;;;22.48;28.29;99892.81;4950062;29;835;-79
2021/11/10 11:31:35;;;;;;;;;;;;;;;22.45;28.14;99890.00;4901879;29;991;-80
2021/11/10 11:34:00;;;;;;;;;;;;;;;22.20;28.48;99882.28;4900376;29;967;-80
2021/11/10 11:36:45;;;;;;;;;;;;;;;22.36;28.40;99888.38;4902418;29;1035;-80
2021/11/10 11:39:10;;;;;;;;;;;;;;;22.39;28.39;99883.13;4901121;29;932;-81
2021/11/10 11:41:36;;;;;;;;;;;;;;;22.23;28.81;99884.34;4901815;29;1891;-80
2021/11/10 11:44:02;;;;;;;;;;;;;;;21.97;29.07;99879.81;4901205;29;1034;-81
2021/11/10 11:46:27;;;;;;;;;;;;;;;22.40;28.69;99879.88;4906358;29;982;-81
2021/11/10 11:48:55;;;;;;;;;;;;;;;22.53;28.39;99883.09;4919467;29;1003;-81
2021/11/10 11:51:21;;;;;;;;;;;;;;;22.43;28.25;99878.22;4939587;29;988;-81
2021/11/10 11:53:46;;;;;;;;;;;;;;;22.21;28.41;99883.91;4902744;29;869;-79
2021/11/10 11:56:12;;;;;;;;;;;;;;;22.19;28.48;99875.00;4918599;29;966;-81
2021/11/10 11:58:44;;;;;;;;;;;;;;;22.48;28.82;99880.66;4900578;29;927;-80
2021/11/10 12:01:12;;;;;;;;;;;;;;;22.61;28.74;99881.88;4902257;29;1896;-80
2021/11/10 12:03:38;;;;;;;;;;;;;;;22.51;28.59;99879.88;4918977;29;974;-80
2021/11/10 12:06:03;;;;;;;;;;;;;;;22.21;28.92;99883.91;4920901;29;1154;-80
2021/11/10 12:08:41;;;;;;;;;;;;;;;22.34;28.23;99881.50;4954850;29;1049;-81
2021/11/10 12:11:18;;;;;;;;;;;;;;;22.15;28.64;99879.06;4959017;29;925;-81
2021/11/10 12:14:03;;;;;;;;;;;;;;;22.18;28.80;99876.22;4956309;29;934;-78
2021/11/10 12:16:28;;;;;;;;;;;;;;;22.20;29.03;99879.47;4958097;29;935;-81
2021/11/10 12:21:36;;;;;;;;;;;;;;;22.29;28.76;99868.53;5056065;28;1871;-82
2021/11/10 12:24:01;;;;;;;;;;;;;;;22.24;28.85;99866.09;5056909;28;969;-81
2021/11/10 12:26:28;;;;;;;;;;;;;;;22.21;29.08;99860.41;5057234;28;953;-80
2021/11/10 12:28:56;;;;;;;;;;;;;;;22.15;28.94;99862.84;5055019;28;916;-80
2021/11/10 12:31:27;;;;;;;;;;;;;;;22.16;29.16;99867.28;5019662;28;1025;-81
2021/11/10 12:33:53;;;;;;;;;;;;;;;22.47;28.76;99853.53;5034687;28;1032;-81
2021/11/10 12:36:18;;;;;;;;;;;;;;;22.61;28.74;99853.50;5018834;28;882;-81
2021/11/10 12:38:44;;;;;;;;;;;;;;;22.38;28.88;99841.78;5017714;28;847;-81
2021/11/10 12:41:09;;;;;;;;;;;;;;;22.36;28.44;99848.66;5032337;28;1902;-81
2021/11/10 12:43:38;;;;;;;;;;;;;;;22.38;28.33;99847.44;5017338;28;916;-80
2021/11/10 12:46:05;;;;;;;;;;;;;;;22.40;28.34;99845.84;5036142;28;1017;-80
2021/11/10 12:48:30;;;;;;;;;;;;;;;22.47;28.69;99845.81;5033487;28;938;-81
2021/11/10 12:51:11;;;;;;;;;;;;;;;22.30;28.59;99841.78;5035906;28;1005;-80
2021/11/10 12:53:50;;;;;;;;;;;;;;;22.28;29.02;99837.75;5014018;28;959;-81
2021/11/10 12:56:15;;;;;;;;;;;;;;;22.17;28.93;99840.56;4995748;28;910;-80
2021/11/10 12:58:40;;;;;;;;;;;;;;;22.36;28.69;99834.47;4977836;28;979;-81
2021/11/10 13:01:10;;;;;;;;;;;;;;;22.59;28.84;99830.44;4958203;28;1966;-81